Time,TemperatureF,DewpointF,PressureIn,WindDirection,WindDirectionDegrees,WindSpeedMPH,WindSpeedGustMPH,Humidity,HourlyPrecipIn,Conditions,Clouds,dailyrainin,SolarRadiationWatts/m^2,SoftwareType,DateUTC
2013-08-02 00:02:00,55.0,55.0,-100.00,NE,52,0.0,2.0,99,0.00,,,0.03,0.000000,,2013-08-02 07:02:00,
2013-08-02 00:12:00,55.0,55.0,-100.00,NE,52,0.0,2.0,99,0.00,,,0.03,0.000000,,2013-08-02 07:12:00,
2013-08-02 00:44:00,55.0,55.0,-100.00,North,356,0.0,0.0,99,0.00,,,0.03,0.000000,,2013-08-02 07:44:00,
2013-08-02 00:53:00,55.0,55.0,-100.00,North,356,0.0,0.0,99,0.00,,,0.03,0.000000,,2013-08-02 07:53:00,
2013-08-02 01:02:00,55.0,55.0,-100.00,North,356,0.0,0.0,99,0.00,,,0.03,0.000000,,2013-08-02 08:02:00,
2013-08-02 01:43:00,55.0,55.0,-100.00,NW,318,0.0,1.0,99,0.00,,,0.03,0.000000,,2013-08-02 08:43:00,
2013-08-02 01:54:00,55.0,55.0,-100.00,NW,318,0.0,1.0,99,0.00,,,0.03,0.000000,,2013-08-02 08:54:00,
2013-08-02 02:02:00,55.0,55.0,-100.00,NW,318,0.0,1.0,99,0.00,,,0.03,0.000000,,2013-08-02 09:02:00,
2013-08-02 02:12:00,55.0,55.0,-100.00,NW,318,0.0,1.0,99,0.00,,,0.03,0.000000,,2013-08-02 09:12:00,
2013-08-02 02:44:00,55.0,55.0,-100.00,ESE,119,0.0,0.0,99,0.00,,,0.03,0.000000,,2013-08-02 09:44:00,
2013-08-02 02:53:00,55.0,55.0,-100.00,ESE,119,0.0,0.0,99,0.00,,,0.03,0.000000,,2013-08-02 09:53:00,
2013-08-02 03:02:00,55.0,55.0,-100.00,ESE,119,0.0,0.0,99,0.00,,,0.03,0.000000,,2013-08-02 10:02:00,
2013-08-02 03:12:00,55.0,55.0,-100.00,ESE,119,0.0,0.0,99,0.00,,,0.03,0.000000,,2013-08-02 10:12:00,
2013-08-02 03:43:00,55.0,55.0,-100.00,NNE,20,1.0,2.0,99,0.00,,,0.03,0.000000,,2013-08-02 10:43:00,
2013-08-02 03:52:00,55.0,55.0,-100.00,NNE,20,1.0,2.0,99,0.00,,,0.03,0.000000,,2013-08-02 10:52:00,
2013-08-02 04:43:00,55.0,55.0,-100.00,NE,51,2.0,3.0,99,0.00,,,0.03,0.000000,,2013-08-02 11:43:00,
2013-08-02 04:52:00,55.0,55.0,-100.00,NE,51,2.0,3.0,99,0.00,,,0.03,0.000000,,2013-08-02 11:52:00,
2013-08-02 05:02:00,55.0,55.0,-100.00,NE,51,2.0,3.0,99,0.00,,,0.03,0.000000,,2013-08-02 12:02:00,
2013-08-02 06:02:00,55.0,55.0,-100.00,NNE,18,2.0,4.0,99,0.00,,,0.02,0.000000,,2013-08-02 13:02:00,
2013-08-02 06:12:00,55.0,55.0,-100.00,NNE,18,2.0,4.0,99,0.00,,,0.02,0.000000,,2013-08-02 13:12:00,
2013-08-02 06:43:00,54.0,54.0,-100.00,North,3,2.0,4.0,100,0.00,,,0.01,0.000000,,2013-08-02 13:43:00,
2013-08-02 06:52:00,54.0,54.0,-100.00,North,3,2.0,4.0,100,0.00,,,0.01,0.000000,,2013-08-02 13:52:00,
2013-08-02 07:02:00,54.0,54.0,-100.00,North,3,2.0,4.0,100,0.00,,,0.01,0.000000,,2013-08-02 14:02:00,
2013-08-02 08:03:00,54.0,54.0,-100.00,NNE,22,2.0,5.0,100,0.00,,,0.01,22.000000,,2013-08-02 15:03:00,
2013-08-02 08:12:00,54.0,54.0,-100.00,NNE,22,2.0,5.0,100,0.00,,,0.01,22.000000,,2013-08-02 15:12:00,
2013-08-02 10:43:00,63.0,54.0,-100.00,North,10,3.0,6.0,73,0.00,,,0.01,464.000000,,2013-08-02 17:43:00,
2013-08-02 10:52:00,63.0,54.0,-100.00,North,10,3.0,6.0,73,0.00,,,0.01,464.000000,,2013-08-02 17:52:00,
2013-08-02 11:02:00,63.0,54.0,-100.00,North,10,3.0,6.0,73,0.00,,,0.01,464.000000,,2013-08-02 18:02:00,
2013-08-02 11:11:00,63.0,54.0,-100.00,North,10,3.0,6.0,73,0.00,,,0.01,464.000000,,2013-08-02 18:11:00,
2013-08-02 11:43:00,65.0,55.0,-100.00,North,10,3.0,6.0,70,0.00,,,0.00,744.000000,,2013-08-02 18:43:00,
2013-08-02 11:52:00,65.0,55.0,-100.00,North,10,3.0,6.0,70,0.00,,,0.00,744.000000,,2013-08-02 18:52:00,
2013-08-02 12:02:00,65.0,55.0,-100.00,North,10,3.0,6.0,70,0.00,,,0.00,744.000000,,2013-08-02 19:02:00,
2013-08-02 12:11:00,65.0,55.0,-100.00,North,10,3.0,6.0,70,0.00,,,0.00,744.000000,,2013-08-02 19:11:00,
2013-08-02 12:43:00,67.0,55.0,-100.00,North,1,4.0,7.0,65,0.00,,,0.00,897.000000,,2013-08-02 19:43:00,
2013-08-02 12:52:00,67.0,55.0,-100.00,North,1,4.0,7.0,65,0.00,,,0.00,897.000000,,2013-08-02 19:52:00,
2013-08-02 13:02:00,67.0,55.0,-100.00,North,1,4.0,7.0,65,0.00,,,0.00,897.000000,,2013-08-02 20:02:00,
2013-08-02 13:12:00,67.0,55.0,-100.00,North,1,4.0,7.0,65,0.00,,,0.00,897.000000,,2013-08-02 20:12:00,
2013-08-02 13:43:00,67.0,56.0,-100.00,NNE,24,5.0,9.0,67,0.00,,,0.00,976.000000,,2013-08-02 20:43:00,
2013-08-02 13:52:00,67.0,56.0,-100.00,NNE,24,5.0,9.0,67,0.00,,,0.00,976.000000,,2013-08-02 20:52:00,
2013-08-02 14:02:00,67.0,56.0,-100.00,NNE,24,5.0,9.0,67,0.00,,,0.00,976.000000,,2013-08-02 21:02:00,
2013-08-02 14:11:00,67.0,56.0,-100.00,NNE,24,5.0,9.0,67,0.00,,,0.00,976.000000,,2013-08-02 21:11:00,
2013-08-02 14:43:00,68.0,55.0,-100.00,NNE,19,4.0,11.0,63,0.00,,,0.00,976.000000,,2013-08-02 21:43:00,
2013-08-02 14:53:00,68.0,55.0,-100.00,NNE,19,4.0,11.0,63,0.00,,,0.00,976.000000,,2013-08-02 21:53:00,
2013-08-02 15:02:00,68.0,55.0,-100.00,NNE,19,4.0,11.0,63,0.00,,,0.00,976.000000,,2013-08-02 22:02:00,
2013-08-02 15:11:00,68.0,55.0,-100.00,NNE,19,4.0,11.0,63,0.00,,,0.00,976.000000,,2013-08-02 22:11:00,
2013-08-02 15:43:00,67.0,54.0,-100.00,NNE,20,5.0,9.0,64,0.00,,,0.00,913.000000,,2013-08-02 22:43:00,
2013-08-02 15:52:00,67.0,54.0,-100.00,NNE,20,5.0,9.0,64,0.00,,,0.00,913.000000,,2013-08-02 22:52:00,
2013-08-02 16:02:00,67.0,54.0,-100.00,NNE,20,5.0,9.0,64,0.00,,,0.00,913.000000,,2013-08-02 23:02:00,
2013-08-02 16:12:00,67.0,54.0,-100.00,NNE,20,5.0,9.0,64,0.00,,,0.00,913.000000,,2013-08-02 23:12:00,
2013-08-02 16:44:00,64.0,55.0,-100.00,NNE,21,6.0,9.0,72,0.00,,,0.00,794.000000,,2013-08-02 23:44:00,
2013-08-02 16:53:00,64.0,55.0,-100.00,NNE,21,6.0,9.0,72,0.00,,,0.00,794.000000,,2013-08-02 23:53:00,
2013-08-02 17:02:00,64.0,55.0,-100.00,NNE,21,6.0,9.0,72,0.00,,,0.00,794.000000,,2013-08-03 00:02:00,
2013-08-02 17:11:00,64.0,55.0,-100.00,NNE,21,6.0,9.0,72,0.00,,,0.00,794.000000,,2013-08-03 00:11:00,
2013-08-02 17:43:00,61.0,53.0,-100.00,NNE,20,8.0,12.0,76,0.00,,,0.00,636.000000,,2013-08-03 00:43:00,
2013-08-02 17:52:00,61.0,53.0,-100.00,NNE,20,8.0,12.0,76,0.00,,,0.00,636.000000,,2013-08-03 00:52:00,
2013-08-02 18:02:00,61.0,53.0,-100.00,NNE,20,8.0,12.0,76,0.00,,,0.00,636.000000,,2013-08-03 01:02:00,
2013-08-02 18:11:00,61.0,53.0,-100.00,NNE,20,8.0,12.0,76,0.00,,,0.00,636.000000,,2013-08-03 01:11:00,
2013-08-02 18:43:00,60.0,54.0,-100.00,NNE,12,6.0,13.0,82,0.00,,,0.00,444.000000,,2013-08-03 01:43:00,
2013-08-02 18:53:00,60.0,54.0,-100.00,NNE,12,6.0,13.0,82,0.00,,,0.00,444.000000,,2013-08-03 01:53:00,
2013-08-02 19:02:00,60.0,54.0,-100.00,NNE,12,6.0,13.0,82,0.00,,,0.00,444.000000,,2013-08-03 02:02:00,
2013-08-02 19:12:00,60.0,54.0,-100.00,NNE,12,6.0,13.0,82,0.00,,,0.00,444.000000,,2013-08-03 02:12:00,
2013-08-02 19:43:00,58.0,55.0,-100.00,North,5,5.0,11.0,89,0.00,,,0.00,246.000000,,2013-08-03 02:43:00,
2013-08-02 19:52:00,58.0,55.0,-100.00,North,5,5.0,11.0,89,0.00,,,0.00,246.000000,,2013-08-03 02:52:00,
2013-08-02 20:02:00,58.0,55.0,-100.00,North,5,5.0,11.0,89,0.00,,,0.00,246.000000,,2013-08-03 03:02:00,
2013-08-02 20:11:00,58.0,55.0,-100.00,North,5,5.0,11.0,89,0.00,,,0.00,246.000000,,2013-08-03 03:11:00,
2013-08-02 20:43:00,55.0,54.0,-100.00,North,9,6.0,11.0,97,0.00,,,0.00,82.000000,,2013-08-03 03:43:00,
2013-08-02 20:53:00,55.0,54.0,-100.00,North,9,6.0,11.0,97,0.00,,,0.00,82.000000,,2013-08-03 03:53:00,
2013-08-02 21:02:00,55.0,54.0,-100.00,North,9,6.0,11.0,97,0.00,,,0.00,82.000000,,2013-08-03 04:02:00,
2013-08-02 21:11:00,55.0,54.0,-100.00,North,9,6.0,11.0,97,0.00,,,0.00,82.000000,,2013-08-03 04:11:00,
2013-08-02 21:43:00,54.0,54.0,-100.00,NNE,15,5.0,10.0,99,0.00,,,0.00,3.000000,,2013-08-03 04:43:00,
2013-08-02 21:53:00,54.0,54.0,-100.00,NNE,15,5.0,10.0,99,0.00,,,0.00,3.000000,,2013-08-03 04:53:00,
2013-08-02 22:02:00,54.0,54.0,-100.00,NNE,15,5.0,10.0,99,0.00,,,0.00,3.000000,,2013-08-03 05:02:00,
2013-08-02 22:42:00,54.0,54.0,-100.00,NNE,13,5.0,8.0,100,0.00,,,0.00,0.000000,,2013-08-03 05:42:00,
2013-08-02 22:52:00,54.0,54.0,-100.00,NNE,13,5.0,8.0,100,0.00,,,0.00,0.000000,,2013-08-03 05:52:00,
2013-08-02 23:02:00,54.0,54.0,-100.00,NNE,13,5.0,8.0,100,0.00,,,0.00,0.000000,,2013-08-03 06:02:00,
2013-08-02 23:33:00,54.0,54.0,-100.00,NNE,33,4.0,7.0,100,0.00,,,0.00,0.000000,,2013-08-03 06:33:00,
2013-08-02 23:42:00,54.0,54.0,-100.00,NNE,33,4.0,7.0,100,0.00,,,0.00,0.000000,,2013-08-03 06:42:00,
2013-08-02 23:52:00,54.0,54.0,-100.00,NNE,33,4.0,7.0,100,0.00,,,0.00,0.000000,,2013-08-03 06:52:00,